Huvudsida
METAR-TAF:

METAR-TAF

Flygplatser :

Ålborgs flygplats

Ålborg, Danmark

latitud: 57-06N, longitud: 009-51E, höjd: 3 m

Aktuellt väderrapport

Denna rapport gjordes för 11 minuter sedan, klockan 22:50 UTC
Vind 6 kt från ost/sydost
Temperatur -4°C
Fuktighet 93%
Tryck 1009 hPa
Sikt 10 km eller mer

METAR: EKYT 232250Z AUTO 12006KT 9999 NCD M04/M05 Q1009 R08L/710195

Tid: 00:01 (23:01 UTC)

Väderprognos

Denna rapport gjordes för 1 timme och 39 minuter sedan, klockan 21:22 UTC
Prognos gäller från 23 kl. 21 UTC till 24 kl. 18 UTC
Vind 8 kt från sydost
Sikt: 8000 m
Spridda moln på en höjd av 1500 ft
Brutna moln på en höjd av 18000 ft
Temporärt
från 24 kl. 00 UTC till 24 kl. 09 UTC
Sikt: 4000 m
Brutna moln på en höjd av 1000 ft
fuktdis

TAF: EKYT 232122Z 2321/2418 14008KT 8000 SCT015 BKN180 TEMPO 2400/2409 4000 BR BKN010

Aktuella väderrapporter och prognoser från 4000 flygplatser (METAR- och TAF-rapporter).

De tillgängliga stationerna syns som gula och röda prickar på kartan.

För musen över prickarna för att se namnen på stationerna.

Klicka sedan för att få väderrapporter och prognoser.

För att ändra kartan: Klicka på de gröna knapparna med ett svart kors på för att zooma in; den gröna knappen med ett streck på för att zooma ut; eller på de gröna pilarna för angränsande kartor.


METAR-TAF: